Time;durP1;ratioP1;P1;durP2;ratioP2;P2;SDS_P1;SDS_P2;PMS_P1;PMS_P2;Temp;Humidity;BMP_temperature;BMP_pressure;BME280_temperature;BME280_humidity;BME280_pressure;Samples;Min_cycle;Max_cycle;Signal;HPM_P1;HPM_P2
2022/05/25 00:01:14;;;;;;;8.32;5.28;;;;;;;;;;5000588;28;20363;-50
2022/05/25 00:03:40;;;;;;;7.37;5.20;;;;;;;;;;5001577;28;20481;-50
2022/05/25 00:06:06;;;;;;;7.50;5.60;;;;;;;;;;4998329;28;20297;-52
2022/05/25 00:08:31;;;;;;;8.98;5.43;;;;;;;;;;5001740;28;20282;-51
2022/05/25 00:10:56;;;;;;;11.13;6.27;;;;;;;;;;5001612;28;20535;-52
2022/05/25 00:13:23;;;;;;;8.57;5.80;;;;;;;;;;4999693;28;20265;-52
2022/05/25 00:15:48;;;;;;;8.25;5.38;;;;;;;;;;5000954;28;20022;-49
2022/05/25 00:18:13;;;;;;;6.95;5.50;;;;;;;;;;5000028;28;20044;-52
2022/05/25 00:20:38;;;;;;;7.47;5.37;;;;;;;;;;5032606;28;20115;-52
2022/05/25 00:23:04;;;;;;;9.37;6.00;;;;;;;;;;4997744;28;20076;-50
2022/05/25 00:25:33;;;;;;;7.85;5.78;;;;;;;;;;4999206;28;20665;-51
2022/05/25 00:27:58;;;;;;;7.20;5.47;;;;;;;;;;5000388;28;20393;-51
2022/05/25 00:30:25;;;;;;;10.30;6.15;;;;;;;;;;4997248;28;20058;-51
2022/05/25 00:32:50;;;;;;;7.32;5.60;;;;;;;;;;4996984;28;20030;-51
2022/05/25 00:35:16;;;;;;;7.10;5.75;;;;;;;;;;5001139;28;20084;-50
2022/05/25 00:37:41;;;;;;;7.20;5.75;;;;;;;;;;5000462;28;20036;-50
2022/05/25 00:40:07;;;;;;;7.57;5.50;;;;;;;;;;4999420;28;20025;-49
2022/05/25 00:42:34;;;;;;;7.07;5.70;;;;;;;;;;5001538;28;20037;-50
2022/05/25 00:44:59;;;;;;;8.45;5.88;;;;;;;;;;5000673;28;20113;-50
2022/05/25 00:47:25;;;;;;;7.60;5.43;;;;;;;;;;4998093;28;20662;-49
2022/05/25 00:49:50;;;;;;;8.95;5.18;;;;;;;;;;5016727;28;20556;-51
2022/05/25 00:52:16;;;;;;;9.45;5.93;;;;;;;;;;5012665;28;20475;-49
2022/05/25 00:54:48;;;;;;;10.03;6.10;;;;;;;;;;5000224;28;20085;-49
2022/05/25 00:57:14;;;;;;;7.50;5.78;;;;;;;;;;5000460;28;20028;-49
2022/05/25 00:59:41;;;;;;;8.45;5.65;;;;;;;;;;4998599;28;20471;-50
2022/05/25 01:02:06;;;;;;;8.02;5.70;;;;;;;;;;5013783;28;20053;-51
2022/05/25 01:04:32;;;;;;;8.30;5.93;;;;;;;;;;4998284;28;20433;-49
2022/05/25 01:06:57;;;;;;;7.77;5.73;;;;;;;;;;5003066;28;20717;-51
2022/05/25 01:09:25;;;;;;;7.90;5.30;;;;;;;;;;5000576;28;20323;-50
2022/05/25 01:12:03;;;;;;;9.25;5.50;;;;;;;;;;5005655;28;20040;-51
2022/05/25 01:14:47;;;;;;;10.18;5.68;;;;;;;;;;5004241;28;20013;-51
2022/05/25 01:17:30;;;;;;;7.75;5.28;;;;;;;;;;5000993;28;20029;-51
2022/05/25 01:20:15;;;;;;;7.55;5.80;;;;;;;;;;5001403;28;20698;-50
2022/05/25 01:23:00;;;;;;;9.23;6.38;;;;;;;;;;5019629;28;20066;-50
2022/05/25 01:25:28;;;;;;;6.50;5.47;;;;;;;;;;5001756;28;20108;-51
2022/05/25 01:27:53;;;;;;;8.35;5.63;;;;;;;;;;5002159;28;20025;-51
2022/05/25 01:30:18;;;;;;;7.67;6.30;;;;;;;;;;5002531;28;20089;-51
2022/05/25 01:32:52;;;;;;;8.67;5.63;;;;;;;;;;5002684;28;20021;-51
2022/05/25 01:35:17;;;;;;;7.57;6.00;;;;;;;;;;5004582;28;20025;-50
2022/05/25 01:37:47;;;;;;;8.53;6.40;;;;;;;;;;5003297;28;20516;-50
2022/05/25 01:40:12;;;;;;;9.60;6.25;;;;;;;;;;5000759;28;20053;-50
2022/05/25 01:42:43;;;;;;;8.47;5.63;;;;;;;;;;5002715;28;20080;-50
2022/05/25 01:45:08;;;;;;;9.23;5.68;;;;;;;;;;5003738;28;20064;-50
2022/05/25 01:47:33;;;;;;;7.95;5.50;;;;;;;;;;5000179;28;20132;-51
2022/05/25 01:50:04;;;;;;;7.55;5.90;;;;;;;;;;4997014;28;20029;-50
2022/05/25 01:52:32;;;;;;;6.80;5.88;;;;;;;;;;5017222;28;20072;-51
2022/05/25 01:55:02;;;;;;;7.25;5.85;;;;;;;;;;5016982;28;20042;-49
2022/05/25 01:57:28;;;;;;;7.43;5.55;;;;;;;;;;5003318;28;20033;-49
2022/05/25 01:59:54;;;;;;;6.60;5.40;;;;;;;;;;5001114;28;20030;-50
2022/05/25 02:05:04;;;;;;;7.68;5.60;;;;;;;;;;5012577;28;20041;-50
2022/05/25 02:07:29;;;;;;;7.82;5.93;;;;;;;;;;5014068;28;20024;-52
2022/05/25 02:09:58;;;;;;;8.83;6.27;;;;;;;;;;5003563;28;20018;-51
2022/05/25 02:12:27;;;;;;;7.95;5.72;;;;;;;;;;5004174;28;20022;-51
2022/05/25 02:14:52;;;;;;;7.20;5.93;;;;;;;;;;5001712;28;20021;-51
2022/05/25 02:17:46;;;;;;;7.10;6.07;;;;;;;;;;5000959;28;20025;-50
2022/05/25 02:20:18;;;;;;;7.07;5.43;;;;;;;;;;4996996;28;20121;-51
2022/05/25 02:22:50;;;;;;;8.05;5.43;;;;;;;;;;5014838;28;20068;-51
2022/05/25 02:25:21;;;;;;;7.35;5.93;;;;;;;;;;5003589;28;20034;-52
2022/05/25 02:27:52;;;;;;;6.97;5.32;;;;;;;;;;5003042;28;20021;-50
2022/05/25 02:30:18;;;;;;;8.95;5.75;;;;;;;;;;5002140;28;20054;-50
2022/05/25 02:32:46;;;;;;;7.65;5.72;;;;;;;;;;5016702;28;20485;-48
2022/05/25 02:35:11;;;;;;;8.10;5.45;;;;;;;;;;4999171;28;20037;-50
2022/05/25 02:37:37;;;;;;;7.03;6.28;;;;;;;;;;5015309;28;20024;-50
2022/05/25 02:40:03;;;;;;;9.32;6.18;;;;;;;;;;5014675;28;20021;-51
2022/05/25 02:42:28;;;;;;;8.95;6.80;;;;;;;;;;5018562;28;20076;-50
2022/05/25 02:44:53;;;;;;;9.02;6.35;;;;;;;;;;5001439;28;20057;-50
2022/05/25 02:47:19;;;;;;;9.15;6.15;;;;;;;;;;5000934;28;20026;-50
2022/05/25 02:49:44;;;;;;;8.23;6.40;;;;;;;;;;5002138;28;20058;-50
2022/05/25 02:52:09;;;;;;;9.70;6.67;;;;;;;;;;5000551;28;20320;-50
2022/05/25 02:54:34;;;;;;;8.25;6.57;;;;;;;;;;4999476;28;20265;-49
2022/05/25 02:57:00;;;;;;;9.27;7.40;;;;;;;;;;5000738;28;20030;-49
2022/05/25 02:59:25;;;;;;;10.17;7.50;;;;;;;;;;5001297;28;20026;-51
2022/05/25 03:01:50;;;;;;;9.93;7.57;;;;;;;;;;4999383;28;20819;-51
2022/05/25 03:04:16;;;;;;;10.05;7.32;;;;;;;;;;5000725;28;20277;-50
2022/05/25 03:06:41;;;;;;;8.23;7.00;;;;;;;;;;5002164;28;20459;-50
2022/05/25 03:09:06;;;;;;;8.57;7.20;;;;;;;;;;5001964;28;20103;-50
2022/05/25 03:11:31;;;;;;;9.70;6.90;;;;;;;;;;4999926;28;20018;-51
2022/05/25 03:13:56;;;;;;;9.63;6.97;;;;;;;;;;4999013;28;20033;-49
2022/05/25 03:16:22;;;;;;;9.53;7.03;;;;;;;;;;4996597;28;20343;-48
2022/05/25 03:18:48;;;;;;;10.80;7.30;;;;;;;;;;4997773;28;20098;-48
2022/05/25 03:21:13;;;;;;;11.43;6.70;;;;;;;;;;4997295;28;20042;-48
2022/05/25 03:23:38;;;;;;;7.93;6.40;;;;;;;;;;5001563;28;20025;-49
2022/05/25 03:26:07;;;;;;;11.05;6.57;;;;;;;;;;4997198;28;20017;-47
2022/05/25 03:28:32;;;;;;;8.52;6.80;;;;;;;;;;4997612;28;20061;-49
2022/05/25 03:30:57;;;;;;;9.18;6.60;;;;;;;;;;4995530;28;20423;-49
2022/05/25 03:33:23;;;;;;;7.80;6.65;;;;;;;;;;4997465;28;20010;-51
2022/05/25 03:35:48;;;;;;;10.40;6.57;;;;;;;;;;4999672;28;20080;-51
2022/05/25 03:38:13;;;;;;;7.80;6.63;;;;;;;;;;5002893;28;20273;-50
2022/05/25 03:40:38;;;;;;;11.63;6.43;;;;;;;;;;5004662;28;20257;-50
2022/05/25 03:43:10;;;;;;;8.85;6.32;;;;;;;;;;5002401;28;20014;-49
2022/05/25 03:45:35;;;;;;;10.15;7.10;;;;;;;;;;5004373;28;20025;-54
2022/05/25 03:48:01;;;;;;;9.98;7.20;;;;;;;;;;4996145;28;20041;-52
2022/05/25 03:50:26;;;;;;;11.23;7.03;;;;;;;;;;4995390;28;20562;-53
2022/05/25 03:52:51;;;;;;;9.15;7.00;;;;;;;;;;4997310;28;20672;-50
2022/05/25 03:55:16;;;;;;;10.90;7.17;;;;;;;;;;4995850;28;20453;-51
2022/05/25 03:57:42;;;;;;;9.10;6.88;;;;;;;;;;4999018;28;20454;-52
2022/05/25 04:00:07;;;;;;;8.48;6.47;;;;;;;;;;4999275;28;20068;-55
2022/05/25 04:02:32;;;;;;;8.23;6.70;;;;;;;;;;4999218;28;20581;-55
2022/05/25 04:05:12;;;;;;;9.88;6.45;;;;;;;;;;5001937;28;20493;-50
2022/05/25 04:07:38;;;;;;;11.15;7.28;;;;;;;;;;4997364;28;20041;-51
2022/05/25 04:10:05;;;;;;;8.77;6.30;;;;;;;;;;4998831;28;20473;-54
2022/05/25 04:12:32;;;;;;;8.13;6.35;;;;;;;;;;5012144;28;20727;-51
2022/05/25 04:14:57;;;;;;;8.73;6.68;;;;;;;;;;4992474;28;20026;-49
2022/05/25 04:17:23;;;;;;;9.60;6.65;;;;;;;;;;4995627;28;20493;-50
2022/05/25 04:19:50;;;;;;;10.65;6.78;;;;;;;;;;5000757;28;20018;-51
2022/05/25 04:22:16;;;;;;;8.70;7.18;;;;;;;;;;4997578;28;20087;-50
2022/05/25 04:24:41;;;;;;;12.00;6.80;;;;;;;;;;4998456;28;20084;-48
2022/05/25 04:27:07;;;;;;;10.67;7.00;;;;;;;;;;4994870;28;21019;-49
2022/05/25 04:29:33;;;;;;;9.87;6.60;;;;;;;;;;4997767;28;20729;-48
2022/05/25 04:31:58;;;;;;;10.43;7.20;;;;;;;;;;5011032;28;20281;-57
2022/05/25 04:34:23;;;;;;;11.60;7.17;;;;;;;;;;5001076;28;20401;-51
2022/05/25 04:36:48;;;;;;;8.80;6.47;;;;;;;;;;5004803;28;20500;-49
2022/05/25 04:39:13;;;;;;;9.93;6.37;;;;;;;;;;4992823;28;20857;-48
2022/05/25 04:41:39;;;;;;;10.55;6.68;;;;;;;;;;4996142;28;20519;-50
2022/05/25 04:44:04;;;;;;;8.90;6.50;;;;;;;;;;4990330;28;20015;-47
2022/05/25 04:46:29;;;;;;;7.93;6.53;;;;;;;;;;4991674;28;20273;-48
2022/05/25 04:48:55;;;;;;;10.23;6.85;;;;;;;;;;4998946;28;20446;-47
2022/05/25 04:51:20;;;;;;;7.90;6.38;;;;;;;;;;4999474;28;20096;-50
2022/05/25 04:53:45;;;;;;;10.17;7.20;;;;;;;;;;5000477;28;20484;-47
2022/05/25 04:58:54;;;;;;;11.60;7.05;;;;;;;;;;4987056;28;20029;-47
2022/05/25 05:01:19;;;;;;;11.77;6.87;;;;;;;;;;5000802;28;20120;-49
2022/05/25 05:03:45;;;;;;;10.60;7.20;;;;;;;;;;4996780;28;20109;-47
2022/05/25 05:06:10;;;;;;;9.23;6.60;;;;;;;;;;4987761;28;20284;-46
2022/05/25 05:08:35;;;;;;;10.18;6.70;;;;;;;;;;4998113;28;20013;-49
2022/05/25 05:11:07;;;;;;;9.98;6.25;;;;;;;;;;4995971;28;20101;-50
2022/05/25 05:13:32;;;;;;;8.90;6.30;;;;;;;;;;4990146;28;20088;-47
2022/05/25 05:16:01;;;;;;;7.13;6.43;;;;;;;;;;4997301;28;20758;-47
2022/05/25 05:18:26;;;;;;;7.83;6.60;;;;;;;;;;4998443;28;20265;-47
2022/05/25 05:20:52;;;;;;;11.20;6.80;;;;;;;;;;4997469;28;20789;-49
2022/05/25 05:23:17;;;;;;;7.70;6.30;;;;;;;;;;4994829;28;20292;-46
2022/05/25 05:25:42;;;;;;;8.43;7.00;;;;;;;;;;4997455;28;20416;-47
2022/05/25 05:28:07;;;;;;;8.37;5.93;;;;;;;;;;4998849;28;21186;-48
2022/05/25 05:30:33;;;;;;;10.60;6.65;;;;;;;;;;4998400;28;20456;-48
2022/05/25 05:32:58;;;;;;;8.40;6.05;;;;;;;;;;4997742;28;20736;-48
2022/05/25 05:35:26;;;;;;;7.35;6.15;;;;;;;;;;5002179;28;20104;-48
2022/05/25 05:37:52;;;;;;;8.85;6.60;;;;;;;;;;5002188;28;20029;-49
2022/05/25 05:40:17;;;;;;;10.07;6.35;;;;;;;;;;5003804;28;20025;-49
2022/05/25 05:42:43;;;;;;;12.07;7.00;;;;;;;;;;4998512;28;20450;-48
2022/05/25 05:45:09;;;;;;;9.50;6.47;;;;;;;;;;4998822;28;20022;-48
2022/05/25 05:47:36;;;;;;;11.80;6.80;;;;;;;;;;5012891;28;20017;-46
2022/05/25 05:50:03;;;;;;;8.20;6.35;;;;;;;;;;4999241;28;20034;-47
2022/05/25 05:52:28;;;;;;;9.63;6.60;;;;;;;;;;5000192;28;20030;-48
2022/05/25 05:54:53;;;;;;;9.60;6.77;;;;;;;;;;5019191;28;20026;-48
2022/05/25 05:57:18;;;;;;;10.90;7.00;;;;;;;;;;5016290;28;20265;-48
2022/05/25 05:59:44;;;;;;;10.70;7.27;;;;;;;;;;5000036;28;20036;-48
2022/05/25 06:02:09;;;;;;;12.07;8.05;;;;;;;;;;5003234;28;20523;-49
2022/05/25 06:04:35;;;;;;;12.10;7.20;;;;;;;;;;4996712;28;20037;-47
2022/05/25 06:07:00;;;;;;;12.30;8.37;;;;;;;;;;5004343;28;20018;-49
2022/05/25 06:09:25;;;;;;;12.70;7.40;;;;;;;;;;4999928;28;20013;-46
2022/05/25 06:11:50;;;;;;;10.23;7.32;;;;;;;;;;4995939;28;20359;-47
2022/05/25 06:14:16;;;;;;;12.77;7.40;;;;;;;;;;5001677;28;20025;-47
2022/05/25 06:19:30;;;;;;;9.38;7.50;;;;;;;;;;5003379;28;20350;-48
2022/05/25 06:21:57;;;;;;;10.73;7.25;;;;;;;;;;4994493;28;20029;-47
2022/05/25 06:24:22;;;;;;;12.40;7.43;;;;;;;;;;4997651;28;20606;-49
2022/05/25 06:26:47;;;;;;;12.07;7.27;;;;;;;;;;4999802;28;20061;-50
2022/05/25 06:29:16;;;;;;;10.50;7.73;;;;;;;;;;5000341;28;20548;-49
2022/05/25 06:31:41;;;;;;;10.18;6.97;;;;;;;;;;5001885;28;20030;-51
2022/05/25 06:34:07;;;;;;;11.17;7.00;;;;;;;;;;4999576;28;20080;-49
2022/05/25 06:36:32;;;;;;;11.00;6.67;;;;;;;;;;5001211;28;20272;-49
2022/05/25 06:38:58;;;;;;;11.75;6.95;;;;;;;;;;5000225;28;20034;-48
2022/05/25 06:41:24;;;;;;;12.32;7.15;;;;;;;;;;4999471;28;20493;-51
2022/05/25 06:43:49;;;;;;;11.63;7.45;;;;;;;;;;5003959;28;20026;-50
2022/05/25 06:46:15;;;;;;;13.50;7.55;;;;;;;;;;5000893;28;20842;-48
2022/05/25 06:48:40;;;;;;;10.30;7.10;;;;;;;;;;5000650;28;20034;-50
2022/05/25 06:51:09;;;;;;;11.13;7.45;;;;;;;;;;5002255;28;20033;-47
2022/05/25 06:53:34;;;;;;;12.82;8.00;;;;;;;;;;5001030;28;20135;-45
2022/05/25 06:56:00;;;;;;;12.60;8.30;;;;;;;;;;5002156;28;20517;-49
2022/05/25 06:58:25;;;;;;;13.73;7.90;;;;;;;;;;4998119;28;20053;-48
2022/05/25 07:00:50;;;;;;;12.60;7.20;;;;;;;;;;5003332;28;20140;-50
2022/05/25 07:03:15;;;;;;;11.53;7.63;;;;;;;;;;5001343;28;20112;-50
2022/05/25 07:05:40;;;;;;;11.67;8.63;;;;;;;;;;5002641;28;20105;-47
2022/05/25 07:08:06;;;;;;;11.70;8.23;;;;;;;;;;4999759;28;20105;-48
2022/05/25 07:10:31;;;;;;;12.55;7.72;;;;;;;;;;5001987;28;20113;-49
2022/05/25 07:12:57;;;;;;;10.27;8.10;;;;;;;;;;5001347;28;20112;-48
2022/05/25 07:15:22;;;;;;;14.55;8.25;;;;;;;;;;5002319;28;20829;-48
2022/05/25 07:17:48;;;;;;;13.25;7.35;;;;;;;;;;5002343;28;20552;-50
2022/05/25 07:20:13;;;;;;;13.55;8.40;;;;;;;;;;4998683;28;20064;-49
2022/05/25 07:22:38;;;;;;;13.30;7.53;;;;;;;;;;4999853;28;20057;-49
2022/05/25 07:25:04;;;;;;;11.10;7.17;;;;;;;;;;4997451;28;20021;-48
2022/05/25 07:27:29;;;;;;;11.68;7.30;;;;;;;;;;5000088;28;20018;-47
2022/05/25 07:29:54;;;;;;;12.17;6.43;;;;;;;;;;4998639;28;20046;-47
2022/05/25 07:32:19;;;;;;;9.53;6.83;;;;;;;;;;4998963;28;20052;-48
2022/05/25 07:34:54;;;;;;;10.27;6.80;;;;;;;;;;5015300;28;20010;-50
2022/05/25 07:37:21;;;;;;;11.27;7.25;;;;;;;;;;4998686;28;20041;-50
2022/05/25 07:39:49;;;;;;;12.98;7.10;;;;;;;;;;4999616;28;20018;-49
2022/05/25 07:42:14;;;;;;;8.90;6.93;;;;;;;;;;4998029;28;20030;-48
2022/05/25 07:44:44;;;;;;;11.40;6.72;;;;;;;;;;4994773;28;20030;-49
2022/05/25 07:47:09;;;;;;;11.13;6.53;;;;;;;;;;5012523;28;20627;-48
2022/05/25 07:49:35;;;;;;;9.45;6.35;;;;;;;;;;4992779;28;20486;-47
2022/05/25 07:52:00;;;;;;;9.10;6.47;;;;;;;;;;4998402;28;20111;-48
2022/05/25 07:54:26;;;;;;;9.68;6.63;;;;;;;;;;5000206;28;20018;-51
2022/05/25 07:56:51;;;;;;;9.07;6.07;;;;;;;;;;4998643;28;20025;-47
2022/05/25 07:59:16;;;;;;;9.77;7.22;;;;;;;;;;5002504;28;20025;-48
2022/05/25 08:07:12;;;;;;;10.52;6.55;;;;;;;;;;4998849;28;20101;-48
2022/05/25 08:09:37;;;;;;;12.07;7.07;;;;;;;;;;5017067;28;20022;-49
2022/05/25 08:12:04;;;;;;;9.90;6.50;;;;;;;;;;5002253;28;20034;-48
2022/05/25 08:14:29;;;;;;;10.10;6.28;;;;;;;;;;5015232;28;20279;-47
2022/05/25 08:16:54;;;;;;;11.80;6.47;;;;;;;;;;4996114;28;20022;-48
2022/05/25 08:19:19;;;;;;;12.80;6.77;;;;;;;;;;4999809;28;20164;-48
2022/05/25 08:21:45;;;;;;;8.73;6.43;;;;;;;;;;4996337;28;20025;-48
2022/05/25 08:24:11;;;;;;;9.75;7.55;;;;;;;;;;4999695;28;20117;-50
2022/05/25 08:26:36;;;;;;;11.20;7.30;;;;;;;;;;4994282;28;20033;-49
2022/05/25 08:29:02;;;;;;;8.35;6.22;;;;;;;;;;4996752;28;20394;-48
2022/05/25 08:31:27;;;;;;;8.33;6.43;;;;;;;;;;4997112;28;20029;-48
2022/05/25 08:33:52;;;;;;;10.15;6.85;;;;;;;;;;4998371;28;20803;-48
2022/05/25 08:36:17;;;;;;;8.47;6.53;;;;;;;;;;4997072;28;20030;-47
2022/05/25 08:38:43;;;;;;;9.23;6.40;;;;;;;;;;5001090;28;20033;-48
2022/05/25 08:41:08;;;;;;;8.67;7.03;;;;;;;;;;4999013;28;20320;-51
2022/05/25 08:43:44;;;;;;;7.93;5.97;;;;;;;;;;4997923;28;20497;-48
2022/05/25 08:46:13;;;;;;;10.32;6.28;;;;;;;;;;4998680;28;20033;-48
2022/05/25 08:48:40;;;;;;;12.95;6.25;;;;;;;;;;5020597;28;20033;-49
2022/05/25 08:51:06;;;;;;;8.30;6.20;;;;;;;;;;5000419;28;20064;-48
2022/05/25 08:53:33;;;;;;;10.40;6.68;;;;;;;;;;4998293;28;20028;-49
2022/05/25 08:56:01;;;;;;;10.32;6.95;;;;;;;;;;5013910;28;20037;-49
2022/05/25 08:58:40;;;;;;;9.68;6.72;;;;;;;;;;4997978;28;20030;-48
2022/05/25 09:01:06;;;;;;;11.40;6.57;;;;;;;;;;4998254;28;20203;-47
2022/05/25 09:03:51;;;;;;;9.75;6.47;;;;;;;;;;4998148;28;20105;-48
2022/05/25 09:06:32;;;;;;;9.85;6.93;;;;;;;;;;4995310;28;20497;-47
2022/05/25 09:09:16;;;;;;;11.38;7.72;;;;;;;;;;4997091;28;20034;-48
2022/05/25 09:11:49;;;;;;;9.73;6.60;;;;;;;;;;4998431;28;20017;-48
2022/05/25 09:14:34;;;;;;;8.70;6.68;;;;;;;;;;4992881;28;20034;-49
2022/05/25 09:17:00;;;;;;;10.30;6.43;;;;;;;;;;4996509;28;20128;-50
2022/05/25 09:19:31;;;;;;;10.15;6.40;;;;;;;;;;4996825;28;20561;-49
2022/05/25 09:22:00;;;;;;;9.38;6.55;;;;;;;;;;5010981;28;20037;-49
2022/05/25 09:24:26;;;;;;;10.30;7.10;;;;;;;;;;5013495;28;20066;-49
2022/05/25 09:26:51;;;;;;;8.60;5.78;;;;;;;;;;5002087;28;20032;-50
2022/05/25 09:29:16;;;;;;;12.32;7.03;;;;;;;;;;5000386;28;20049;-49
2022/05/25 09:31:46;;;;;;;12.43;6.90;;;;;;;;;;5003572;28;20125;-52
2022/05/25 09:34:13;;;;;;;11.77;6.60;;;;;;;;;;4997744;28;20018;-49
2022/05/25 09:36:44;;;;;;;10.95;6.65;;;;;;;;;;5016615;28;20945;-49
2022/05/25 09:39:15;;;;;;;9.75;7.13;;;;;;;;;;5001520;28;20018;-49
2022/05/25 09:41:44;;;;;;;11.98;6.35;;;;;;;;;;5003975;28;20416;-48
2022/05/25 09:44:10;;;;;;;8.43;6.15;;;;;;;;;;4990573;28;20497;-50
2022/05/25 09:46:37;;;;;;;8.60;6.47;;;;;;;;;;5016285;28;20038;-49
2022/05/25 09:49:03;;;;;;;12.00;7.20;;;;;;;;;;5001641;28;20025;-50
2022/05/25 09:51:33;;;;;;;11.25;6.57;;;;;;;;;;5007044;28;20030;-50
2022/05/25 09:54:04;;;;;;;9.57;7.30;;;;;;;;;;5017704;28;20041;-49
2022/05/25 09:56:31;;;;;;;9.60;6.88;;;;;;;;;;4994664;28;20030;-49
2022/05/25 09:58:57;;;;;;;10.45;7.40;;;;;;;;;;5018102;28;20022;-48
2022/05/25 10:01:30;;;;;;;14.60;7.55;;;;;;;;;;5014576;28;20049;-52
2022/05/25 10:03:55;;;;;;;11.32;7.28;;;;;;;;;;5002204;28;20034;-48
2022/05/25 10:06:25;;;;;;;13.77;6.95;;;;;;;;;;5018199;28;20108;-48
2022/05/25 10:09:07;;;;;;;9.00;7.35;;;;;;;;;;4991429;28;20137;-50
2022/05/25 10:11:39;;;;;;;10.15;6.82;;;;;;;;;;5007688;28;20025;-50
2022/05/25 10:14:23;;;;;;;9.85;6.13;;;;;;;;;;4999554;28;20056;-52
2022/05/25 10:16:49;;;;;;;10.45;6.40;;;;;;;;;;4992544;28;20018;-51
2022/05/25 10:19:16;;;;;;;12.25;6.75;;;;;;;;;;5001193;28;20501;-51
2022/05/25 10:21:45;;;;;;;8.85;6.22;;;;;;;;;;4998026;28;20034;-50
2022/05/25 10:24:16;;;;;;;9.10;6.28;;;;;;;;;;5003340;28;20481;-51
2022/05/25 10:26:45;;;;;;;9.15;6.47;;;;;;;;;;4999528;28;20028;-50
2022/05/25 10:29:12;;;;;;;9.60;7.10;;;;;;;;;;5009558;28;20099;-51
2022/05/25 10:37:09;;;;;;;11.68;6.82;;;;;;;;;;5010005;28;20528;-51
2022/05/25 10:39:35;;;;;;;11.00;6.70;;;;;;;;;;4994857;28;20053;-52
2022/05/25 10:42:03;;;;;;;11.27;6.88;;;;;;;;;;4999611;28;20041;-51
2022/05/25 10:44:54;;;;;;;12.10;6.78;;;;;;;;;;5002325;28;20186;-52
2022/05/25 10:47:28;;;;;;;11.93;6.25;;;;;;;;;;5000359;28;20044;-51
2022/05/25 10:49:54;;;;;;;11.30;6.85;;;;;;;;;;4999786;28;20287;-48
2022/05/25 10:52:32;;;;;;;10.90;6.70;;;;;;;;;;5004338;28;20485;-51
2022/05/25 10:54:57;;;;;;;9.73;6.60;;;;;;;;;;4995660;28;20041;-50
2022/05/25 10:57:39;;;;;;;10.02;6.35;;;;;;;;;;4996346;28;20014;-48
2022/05/25 11:00:08;;;;;;;10.60;6.22;;;;;;;;;;5002639;28;20517;-49
2022/05/25 11:02:33;;;;;;;8.93;6.18;;;;;;;;;;5004199;28;20493;-49
2022/05/25 11:05:18;;;;;;;11.23;6.20;;;;;;;;;;5002960;28;20076;-49
2022/05/25 11:07:43;;;;;;;15.55;6.90;;;;;;;;;;4998045;28;20029;-49
2022/05/25 11:10:15;;;;;;;11.15;6.20;;;;;;;;;;4993986;28;20513;-52
2022/05/25 11:12:45;;;;;;;11.40;6.82;;;;;;;;;;4999444;28;20109;-50
2022/05/25 11:15:29;;;;;;;11.60;5.90;;;;;;;;;;5000327;28;20072;-49
2022/05/25 11:17:54;;;;;;;10.05;5.78;;;;;;;;;;5000733;28;20045;-49
2022/05/25 11:20:19;;;;;;;11.43;6.47;;;;;;;;;;5001956;28;20041;-47
2022/05/25 11:23:11;;;;;;;9.20;6.30;;;;;;;;;;5000246;28;20065;-49
2022/05/25 11:25:39;;;;;;;9.65;6.40;;;;;;;;;;4991734;28;20148;-45
2022/05/25 11:28:37;;;;;;;11.07;6.53;;;;;;;;;;5013076;28;20034;-51
2022/05/25 11:31:02;;;;;;;9.75;6.07;;;;;;;;;;5008865;28;20163;-49
2022/05/25 11:33:48;;;;;;;10.98;6.15;;;;;;;;;;5000988;28;20122;-47
2022/05/25 11:36:17;;;;;;;11.43;6.45;;;;;;;;;;4998139;28;20038;-48
2022/05/25 11:38:45;;;;;;;9.25;5.93;;;;;;;;;;4998644;28;20037;-48
2022/05/25 11:41:15;;;;;;;10.48;6.10;;;;;;;;;;4999912;28;20029;-48
2022/05/25 11:43:53;;;;;;;9.52;5.72;;;;;;;;;;5015050;28;20040;-49
2022/05/25 11:46:24;;;;;;;11.02;5.82;;;;;;;;;;5001734;28;20037;-49
2022/05/25 11:49:08;;;;;;;10.98;5.30;;;;;;;;;;4997879;28;20049;-49
2022/05/25 11:51:48;;;;;;;11.82;5.97;;;;;;;;;;5002026;28;20137;-49
2022/05/25 11:54:21;;;;;;;10.18;6.00;;;;;;;;;;4994201;28;20033;-49
2022/05/25 11:57:05;;;;;;;8.10;5.30;;;;;;;;;;4998496;28;20076;-49
2022/05/25 11:59:30;;;;;;;10.60;5.57;;;;;;;;;;5000539;28;20120;-48
2022/05/25 12:01:57;;;;;;;9.55;4.90;;;;;;;;;;4999043;28;20784;-48
2022/05/25 12:04:22;;;;;;;9.57;4.68;;;;;;;;;;4997077;28;20107;-48
2022/05/25 12:07:07;;;;;;;10.40;4.73;;;;;;;;;;4995532;28;20041;-48
2022/05/25 12:09:41;;;;;;;9.32;4.32;;;;;;;;;;4998632;28;20026;-49
2022/05/25 12:12:07;;;;;;;8.68;4.32;;;;;;;;;;4996939;28;20009;-48
2022/05/25 12:14:48;;;;;;;10.18;4.32;;;;;;;;;;4999034;28;20031;-48
2022/05/25 12:17:32;;;;;;;8.48;4.20;;;;;;;;;;4996143;28;20013;-49
2022/05/25 12:19:58;;;;;;;6.13;3.67;;;;;;;;;;4998235;28;20473;-47
2022/05/25 12:22:28;;;;;;;6.53;3.45;;;;;;;;;;4991713;28;20096;-50
2022/05/25 12:24:54;;;;;;;8.80;3.55;;;;;;;;;;5001013;28;20053;-47
2022/05/25 12:27:20;;;;;;;7.35;3.78;;;;;;;;;;5000521;28;20030;-49
2022/05/25 12:29:53;;;;;;;7.53;3.42;;;;;;;;;;5000213;28;20037;-49
2022/05/25 12:32:19;;;;;;;8.70;3.50;;;;;;;;;;5000267;28;20049;-48
2022/05/25 12:34:46;;;;;;;9.13;3.30;;;;;;;;;;4994714;28;20064;-48
2022/05/25 12:37:12;;;;;;;7.80;3.25;;;;;;;;;;5015138;28;20032;-48
2022/05/25 12:39:46;;;;;;;9.00;3.40;;;;;;;;;;5001876;28;20137;-48
2022/05/25 12:42:23;;;;;;;8.05;3.63;;;;;;;;;;4995490;28;20414;-47
2022/05/25 12:50:34;;;;;;;9.10;4.13;;;;;;;;;;4999992;28;20037;-49
2022/05/25 12:53:18;;;;;;;6.40;2.97;;;;;;;;;;5005256;28;20121;-48
2022/05/25 12:55:43;;;;;;;7.13;2.90;;;;;;;;;;4999106;28;20033;-49
2022/05/25 12:58:09;;;;;;;8.30;2.83;;;;;;;;;;4994473;28;20010;-48
2022/05/25 13:00:35;;;;;;;10.70;3.20;;;;;;;;;;4999135;28;20468;-49
2022/05/25 13:03:14;;;;;;;9.07;3.50;;;;;;;;;;5003313;28;20418;-48
2022/05/25 13:05:42;;;;;;;6.63;2.78;;;;;;;;;;5001713;28;20061;-48
2022/05/25 13:08:08;;;;;;;6.43;2.60;;;;;;;;;;4993016;28;20124;-47
2022/05/25 13:10:33;;;;;;;8.75;2.85;;;;;;;;;;5001632;28;20152;-48
2022/05/25 13:13:18;;;;;;;7.97;2.70;;;;;;;;;;4999401;28;20034;-48
2022/05/25 13:15:44;;;;;;;6.40;2.80;;;;;;;;;;5003512;28;20034;-49
2022/05/25 13:18:24;;;;;;;11.48;3.30;;;;;;;;;;5014990;28;20032;-48
2022/05/25 13:20:52;;;;;;;9.23;2.65;;;;;;;;;;4997682;28;20019;-48
2022/05/25 13:23:36;;;;;;;9.13;3.20;;;;;;;;;;5003852;28;20108;-48
2022/05/25 13:26:02;;;;;;;8.23;2.75;;;;;;;;;;5004017;28;20096;-50
2022/05/25 13:28:36;;;;;;;8.50;2.63;;;;;;;;;;5018513;28;20088;-48
2022/05/25 13:31:04;;;;;;;7.35;2.90;;;;;;;;;;4998169;28;20062;-49
2022/05/25 13:33:39;;;;;;;9.65;3.42;;;;;;;;;;5003505;28;20862;-49
2022/05/25 13:36:07;;;;;;;8.32;3.25;;;;;;;;;;5003832;28;20018;-48
2022/05/25 13:38:51;;;;;;;5.53;2.70;;;;;;;;;;5004658;28;20022;-49
2022/05/25 13:41:17;;;;;;;11.35;3.10;;;;;;;;;;4998530;28;20647;-49
2022/05/25 13:43:47;;;;;;;11.93;2.75;;;;;;;;;;5002516;28;20024;-50
2022/05/25 13:46:28;;;;;;;14.43;3.00;;;;;;;;;;5003028;28;20022;-49
2022/05/25 13:48:54;;;;;;;9.90;2.83;;;;;;;;;;4999687;28;20040;-51
2022/05/25 13:51:19;;;;;;;11.73;3.07;;;;;;;;;;4998613;28;20021;-51
2022/05/25 13:53:46;;;;;;;8.23;3.15;;;;;;;;;;5009800;28;20392;-49
2022/05/25 13:56:12;;;;;;;7.55;2.38;;;;;;;;;;5004572;28;20549;-48
2022/05/25 13:58:41;;;;;;;8.65;3.10;;;;;;;;;;5000837;28;20101;-50
2022/05/25 14:01:06;;;;;;;9.32;3.17;;;;;;;;;;4993824;28;20519;-49
2022/05/25 14:03:34;;;;;;;6.97;2.42;;;;;;;;;;5012037;28;20033;-50
2022/05/25 14:06:01;;;;;;;6.80;2.35;;;;;;;;;;5001988;28;20809;-49
2022/05/25 14:11:20;;;;;;;9.10;2.72;;;;;;;;;;5000124;28;20037;-50
2022/05/25 14:13:46;;;;;;;6.93;2.55;;;;;;;;;;5000102;28;20018;-50
2022/05/25 14:16:15;;;;;;;9.75;2.42;;;;;;;;;;5001417;28;20460;-49
2022/05/25 14:18:51;;;;;;;9.13;2.88;;;;;;;;;;5002154;28;20447;-50
2022/05/25 14:21:35;;;;;;;5.60;2.25;;;;;;;;;;4993989;28;20627;-49
2022/05/25 14:24:03;;;;;;;8.13;2.50;;;;;;;;;;4996322;28;20030;-48
2022/05/25 14:26:29;;;;;;;6.20;2.80;;;;;;;;;;4999229;28;20021;-50
2022/05/25 14:28:55;;;;;;;9.52;2.38;;;;;;;;;;5019928;28;20061;-49
2022/05/25 14:31:21;;;;;;;9.25;2.83;;;;;;;;;;5013605;28;20667;-49
2022/05/25 14:33:47;;;;;;;6.45;2.97;;;;;;;;;;5015908;28;20010;-49
2022/05/25 14:36:21;;;;;;;7.20;2.55;;;;;;;;;;5018042;28;20108;-49
2022/05/25 14:38:47;;;;;;;8.75;2.50;;;;;;;;;;4999540;28;20018;-49
2022/05/25 14:41:19;;;;;;;8.45;2.83;;;;;;;;;;5016167;28;20072;-51
2022/05/25 14:43:45;;;;;;;6.70;2.60;;;;;;;;;;5002886;28;20443;-48
2022/05/25 14:46:11;;;;;;;7.68;2.45;;;;;;;;;;5007637;28;20033;-50
2022/05/25 14:48:41;;;;;;;9.15;2.80;;;;;;;;;;5000896;28;20431;-50
2022/05/25 14:51:06;;;;;;;11.98;2.53;;;;;;;;;;5003544;28;20109;-49
2022/05/25 14:53:31;;;;;;;8.10;2.50;;;;;;;;;;4991105;28;20566;-49
2022/05/25 14:56:06;;;;;;;5.88;2.35;;;;;;;;;;4985417;28;20025;-50
2022/05/25 14:58:47;;;;;;;8.43;2.80;;;;;;;;;;4990932;28;20065;-50
2022/05/25 15:01:14;;;;;;;7.78;2.25;;;;;;;;;;4997381;28;20025;-50
2022/05/25 15:03:57;;;;;;;10.80;2.53;;;;;;;;;;5000145;28;20034;-50
2022/05/25 15:06:24;;;;;;;9.35;1.98;;;;;;;;;;4996425;28;20034;-50
2022/05/25 15:08:52;;;;;;;9.90;2.05;;;;;;;;;;5014151;28;20053;-50
2022/05/25 15:11:33;;;;;;;8.23;2.70;;;;;;;;;;4998179;28;20017;-50
2022/05/25 15:20:05;;;;;;;9.30;2.20;;;;;;;;;;4992816;28;20041;-51